sensor_id;sensor_type;location;lat;lon;timestamp;pressure;altitude;pressure_sealevel;temperature;humidity
70198;BME280;57582;-34.876;138.628;2023-02-11T00:00:17;100233;;;21.97;55.63
70198;BME280;57582;-34.876;138.628;2023-02-11T00:03:17;100230;;;22.14;55.19
70198;BME280;57582;-34.876;138.628;2023-02-11T00:06:17;100237;;;22.16;55.17
70198;BME280;57582;-34.876;138.628;2023-02-11T00:09:17;100229;;;22.21;54.16
70198;BME280;57582;-34.876;138.628;2023-02-11T00:12:17;100238;;;22.06;54.11
70198;BME280;57582;-34.876;138.628;2023-02-11T00:15:17;100239;;;22.21;54.30
70198;BME280;57582;-34.876;138.628;2023-02-11T00:18:17;100242;;;22.29;52.48
70198;BME280;57582;-34.876;138.628;2023-02-11T00:21:18;100234;;;22.34;52.34
70198;BME280;57582;-34.876;138.628;2023-02-11T00:24:17;100243;;;22.33;52.58
70198;BME280;57582;-34.876;138.628;2023-02-11T00:27:17;100248;;;22.33;52.77
70198;BME280;57582;-34.876;138.628;2023-02-11T00:30:17;100247;;;22.49;52.14
70198;BME280;57582;-34.876;138.628;2023-02-11T00:33:18;100239;;;22.76;52.29
70198;BME280;57582;-34.876;138.628;2023-02-11T00:36:20;100237;;;22.89;51.44
70198;BME280;57582;-34.876;138.628;2023-02-11T00:39:17;100240;;;23.01;51.23
70198;BME280;57582;-34.876;138.628;2023-02-11T00:42:17;100245;;;23.18;51.21
70198;BME280;57582;-34.876;138.628;2023-02-11T00:45:17;100240;;;23.25;49.82
70198;BME280;57582;-34.876;138.628;2023-02-11T00:48:17;100246;;;23.31;49.87
70198;BME280;57582;-34.876;138.628;2023-02-11T00:51:17;100236;;;23.15;49.71
70198;BME280;57582;-34.876;138.628;2023-02-11T00:54:17;100238;;;23.20;49.93
70198;BME280;57582;-34.876;138.628;2023-02-11T00:57:17;100234;;;23.39;48.64
70198;BME280;57582;-34.876;138.628;2023-02-11T01:00:17;100245;;;23.35;48.43
70198;BME280;57582;-34.876;138.628;2023-02-11T01:03:17;100246;;;23.23;48.65
70198;BME280;57582;-34.876;138.628;2023-02-11T01:06:18;100259;;;23.26;48.15
70198;BME280;57582;-34.876;138.628;2023-02-11T01:09:18;100260;;;23.44;47.26
70198;BME280;57582;-34.876;138.628;2023-02-11T01:12:17;100254;;;23.63;46.75
70198;BME280;57582;-34.876;138.628;2023-02-11T01:15:18;100260;;;23.72;46.45
70198;BME280;57582;-34.876;138.628;2023-02-11T01:18:17;100261;;;23.83;46.83
70198;BME280;57582;-34.876;138.628;2023-02-11T01:21:17;100265;;;23.91;46.75
70198;BME280;57582;-34.876;138.628;2023-02-11T01:24:17;100263;;;23.76;46.96
70198;BME280;57582;-34.876;138.628;2023-02-11T01:27:17;100264;;;23.38;47.83
70198;BME280;57582;-34.876;138.628;2023-02-11T01:30:17;100262;;;23.65;47.50
70198;BME280;57582;-34.876;138.628;2023-02-11T01:33:17;100267;;;23.65;48.22
70198;BME280;57582;-34.876;138.628;2023-02-11T01:36:17;100260;;;23.93;47.27
70198;BME280;57582;-34.876;138.628;2023-02-11T01:39:17;100255;;;24.11;46.93
70198;BME280;57582;-34.876;138.628;2023-02-11T01:42:18;100253;;;24.18;47.04
70198;BME280;57582;-34.876;138.628;2023-02-11T01:48:20;100251;;;24.60;46.75
70198;BME280;57582;-34.876;138.628;2023-02-11T01:51:20;100232;;;24.48;46.82
70198;BME280;57582;-34.876;138.628;2023-02-11T01:54:19;100248;;;24.46;47.10
70198;BME280;57582;-34.876;138.628;2023-02-11T01:57:18;100246;;;24.64;47.18
70198;BME280;57582;-34.876;138.628;2023-02-11T02:03:18;100249;;;24.71;49.04
70198;BME280;57582;-34.876;138.628;2023-02-11T02:06:21;100246;;;24.79;47.68
70198;BME280;57582;-34.876;138.628;2023-02-11T02:09:19;100257;;;24.75;48.92
70198;BME280;57582;-34.876;138.628;2023-02-11T02:12:17;100254;;;24.82;48.55
70198;BME280;57582;-34.876;138.628;2023-02-11T02:15:18;100254;;;24.77;47.99
70198;BME280;57582;-34.876;138.628;2023-02-11T02:24:21;100254;;;24.94;46.95
70198;BME280;57582;-34.876;138.628;2023-02-11T02:36:21;100284;;;25.02;45.77
70198;BME280;57582;-34.876;138.628;2023-02-11T02:39:19;100280;;;25.03;46.63
70198;BME280;57582;-34.876;138.628;2023-02-11T02:42:17;100286;;;25.13;46.80
70198;BME280;57582;-34.876;138.628;2023-02-11T02:45:17;100298;;;25.07;46.88
70198;BME280;57582;-34.876;138.628;2023-02-11T02:48:27;100290;;;24.96;47.65
70198;BME280;57582;-34.876;138.628;2023-02-11T03:03:22;100309;;;25.14;46.79
70198;BME280;57582;-34.876;138.628;2023-02-11T03:06:29;100298;;;25.10;46.43
70198;BME280;57582;-34.876;138.628;2023-02-11T03:09:20;100309;;;25.07;46.00
70198;BME280;57582;-34.876;138.628;2023-02-11T03:12:17;100311;;;25.10;45.92
70198;BME280;57582;-34.876;138.628;2023-02-11T03:15:17;100316;;;24.68;46.66
70198;BME280;57582;-34.876;138.628;2023-02-11T03:18:18;100317;;;24.82;46.92
70198;BME280;57582;-34.876;138.628;2023-02-11T03:21:17;100318;;;24.89;47.31
70198;BME280;57582;-34.876;138.628;2023-02-11T03:24:20;100311;;;24.99;47.10
70198;BME280;57582;-34.876;138.628;2023-02-11T03:36:19;100331;;;24.99;46.34
70198;BME280;57582;-34.876;138.628;2023-02-11T03:39:20;100341;;;24.80;46.84
70198;BME280;57582;-34.876;138.628;2023-02-11T03:42:18;100334;;;24.91;47.09
70198;BME280;57582;-34.876;138.628;2023-02-11T03:45:18;100338;;;25.00;46.82
70198;BME280;57582;-34.876;138.628;2023-02-11T03:48:26;100339;;;25.26;46.57
70198;BME280;57582;-34.876;138.628;2023-02-11T03:51:17;100339;;;25.32;46.40
70198;BME280;57582;-34.876;138.628;2023-02-11T03:54:19;100345;;;25.43;47.89
70198;BME280;57582;-34.876;138.628;2023-02-11T03:57:18;100340;;;25.61;45.61
70198;BME280;57582;-34.876;138.628;2023-02-11T04:00:17;100337;;;25.53;45.06
70198;BME280;57582;-34.876;138.628;2023-02-11T04:03:17;100349;;;25.79;45.04
70198;BME280;57582;-34.876;138.628;2023-02-11T04:06:18;100353;;;25.85;44.34
70198;BME280;57582;-34.876;138.628;2023-02-11T04:09:18;100354;;;25.87;44.19
70198;BME280;57582;-34.876;138.628;2023-02-11T04:12:17;100359;;;26.10;44.14
70198;BME280;57582;-34.876;138.628;2023-02-11T04:15:17;100350;;;26.04;44.51
70198;BME280;57582;-34.876;138.628;2023-02-11T04:18:17;100344;;;26.04;44.58
70198;BME280;57582;-34.876;138.628;2023-02-11T04:21:18;100352;;;25.91;45.30
70198;BME280;57582;-34.876;138.628;2023-02-11T04:24:17;100358;;;25.83;44.71
70198;BME280;57582;-34.876;138.628;2023-02-11T04:27:17;100352;;;25.75;45.58
70198;BME280;57582;-34.876;138.628;2023-02-11T04:30:18;100345;;;25.48;46.87
70198;BME280;57582;-34.876;138.628;2023-02-11T04:33:18;100350;;;25.69;46.63
70198;BME280;57582;-34.876;138.628;2023-02-11T04:36:17;100357;;;25.73;45.15
70198;BME280;57582;-34.876;138.628;2023-02-11T04:39:17;100351;;;25.82;45.18
70198;BME280;57582;-34.876;138.628;2023-02-11T04:42:18;100352;;;25.72;44.65
70198;BME280;57582;-34.876;138.628;2023-02-11T04:45:18;100359;;;25.74;44.44
70198;BME280;57582;-34.876;138.628;2023-02-11T04:48:17;100357;;;25.75;44.31
70198;BME280;57582;-34.876;138.628;2023-02-11T04:51:17;100356;;;25.83;43.82
70198;BME280;57582;-34.876;138.628;2023-02-11T04:54:18;100358;;;25.96;44.18
70198;BME280;57582;-34.876;138.628;2023-02-11T04:57:18;100350;;;25.99;45.15
70198;BME280;57582;-34.876;138.628;2023-02-11T05:00:17;100357;;;26.04;43.72
70198;BME280;57582;-34.876;138.628;2023-02-11T05:03:17;100357;;;25.94;44.27
70198;BME280;57582;-34.876;138.628;2023-02-11T05:06:18;100354;;;25.87;44.14
70198;BME280;57582;-34.876;138.628;2023-02-11T05:09:18;100359;;;25.91;44.44
70198;BME280;57582;-34.876;138.628;2023-02-11T05:12:17;100357;;;25.58;44.80
70198;BME280;57582;-34.876;138.628;2023-02-11T05:15:18;100358;;;25.74;44.99
70198;BME280;57582;-34.876;138.628;2023-02-11T05:18:18;100361;;;25.99;44.45
70198;BME280;57582;-34.876;138.628;2023-02-11T05:21:18;100350;;;25.99;43.81
70198;BME280;57582;-34.876;138.628;2023-02-11T05:24:19;100353;;;26.10;44.21
70198;BME280;57582;-34.876;138.628;2023-02-11T05:27:17;100363;;;25.92;44.15
70198;BME280;57582;-34.876;138.628;2023-02-11T05:30:18;100357;;;25.87;45.01
70198;BME280;57582;-34.876;138.628;2023-02-11T05:33:18;100360;;;25.82;44.72
70198;BME280;57582;-34.876;138.628;2023-02-11T05:36:17;100361;;;25.80;45.44
70198;BME280;57582;-34.876;138.628;2023-02-11T05:39:17;100360;;;25.79;45.50
70198;BME280;57582;-34.876;138.628;2023-02-11T05:42:18;100363;;;25.82;45.40
70198;BME280;57582;-34.876;138.628;2023-02-11T05:45:18;100368;;;25.84;45.63
70198;BME280;57582;-34.876;138.628;2023-02-11T05:48:18;100377;;;25.75;44.96
70198;BME280;57582;-34.876;138.628;2023-02-11T05:51:17;100375;;;25.69;45.51
70198;BME280;57582;-34.876;138.628;2023-02-11T05:54:18;100372;;;25.79;45.57
70198;BME280;57582;-34.876;138.628;2023-02-11T05:57:18;100373;;;25.98;44.87
70198;BME280;57582;-34.876;138.628;2023-02-11T06:00:17;100372;;;26.16;44.27
70198;BME280;57582;-34.876;138.628;2023-02-11T06:03:17;100363;;;26.09;43.69
70198;BME280;57582;-34.876;138.628;2023-02-11T06:06:18;100370;;;26.05;44.36
70198;BME280;57582;-34.876;138.628;2023-02-11T06:09:18;100368;;;25.95;44.39
70198;BME280;57582;-34.876;138.628;2023-02-11T06:12:17;100373;;;25.76;45.32
70198;BME280;57582;-34.876;138.628;2023-02-11T06:15:17;100373;;;25.70;44.58
70198;BME280;57582;-34.876;138.628;2023-02-11T06:18:18;100375;;;25.81;44.96
70198;BME280;57582;-34.876;138.628;2023-02-11T06:21:18;100375;;;25.69;45.80
70198;BME280;57582;-34.876;138.628;2023-02-11T06:24:17;100379;;;25.77;46.08
70198;BME280;57582;-34.876;138.628;2023-02-11T06:27:18;100372;;;25.72;46.76
70198;BME280;57582;-34.876;138.628;2023-02-11T06:30:18;100374;;;25.70;45.54
70198;BME280;57582;-34.876;138.628;2023-02-11T06:33:18;100364;;;25.69;46.67
70198;BME280;57582;-34.876;138.628;2023-02-11T06:36:18;100368;;;25.72;46.69
70198;BME280;57582;-34.876;138.628;2023-02-11T06:39:17;100370;;;25.82;46.53
70198;BME280;57582;-34.876;138.628;2023-02-11T06:42:18;100379;;;25.80;47.46
70198;BME280;57582;-34.876;138.628;2023-02-11T06:45:18;100373;;;25.82;46.98
70198;BME280;57582;-34.876;138.628;2023-02-11T06:48:17;100379;;;25.63;44.40
70198;BME280;57582;-34.876;138.628;2023-02-11T06:51:17;100381;;;25.48;45.78
70198;BME280;57582;-34.876;138.628;2023-02-11T06:54:18;100387;;;25.40;46.16
70198;BME280;57582;-34.876;138.628;2023-02-11T06:57:18;100387;;;25.35;46.40
70198;BME280;57582;-34.876;138.628;2023-02-11T07:00:19;100400;;;25.14;46.88
70198;BME280;57582;-34.876;138.628;2023-02-11T07:03:18;100394;;;24.99;47.71
70198;BME280;57582;-34.876;138.628;2023-02-11T07:06:20;100398;;;25.14;47.95
70198;BME280;57582;-34.876;138.628;2023-02-11T07:09:18;100392;;;25.04;48.11
70198;BME280;57582;-34.876;138.628;2023-02-11T07:12:18;100403;;;24.94;48.34
70198;BME280;57582;-34.876;138.628;2023-02-11T07:15:18;100390;;;24.95;47.88
70198;BME280;57582;-34.876;138.628;2023-02-11T07:18:18;100390;;;25.10;47.69
70198;BME280;57582;-34.876;138.628;2023-02-11T07:21:19;100399;;;25.19;47.25
70198;BME280;57582;-34.876;138.628;2023-02-11T07:24:18;100394;;;25.29;47.42
70198;BME280;57582;-34.876;138.628;2023-02-11T07:27:18;100399;;;25.17;46.42
70198;BME280;57582;-34.876;138.628;2023-02-11T07:30:18;100398;;;25.13;46.93
70198;BME280;57582;-34.876;138.628;2023-02-11T07:33:18;100405;;;24.99;47.34
70198;BME280;57582;-34.876;138.628;2023-02-11T07:36:18;100406;;;24.99;47.20
70198;BME280;57582;-34.876;138.628;2023-02-11T07:39:18;100400;;;24.82;47.24
70198;BME280;57582;-34.876;138.628;2023-02-11T07:42:18;100402;;;24.59;48.02
70198;BME280;57582;-34.876;138.628;2023-02-11T07:45:18;100399;;;24.48;48.84
70198;BME280;57582;-34.876;138.628;2023-02-11T07:48:18;100407;;;24.63;48.98
70198;BME280;57582;-34.876;138.628;2023-02-11T07:51:19;100417;;;24.66;49.06
70198;BME280;57582;-34.876;138.628;2023-02-11T07:54:18;100407;;;24.55;49.25
70198;BME280;57582;-34.876;138.628;2023-02-11T07:57:18;100413;;;24.53;49.39
70198;BME280;57582;-34.876;138.628;2023-02-11T08:00:18;100419;;;24.25;50.00
70198;BME280;57582;-34.876;138.628;2023-02-11T08:03:18;100422;;;24.12;50.55
70198;BME280;57582;-34.876;138.628;2023-02-11T08:06:19;100434;;;24.13;50.92
70198;BME280;57582;-34.876;138.628;2023-02-11T08:09:18;100434;;;24.16;50.50
70198;BME280;57582;-34.876;138.628;2023-02-11T08:12:18;100433;;;24.19;50.54
70198;BME280;57582;-34.876;138.628;2023-02-11T08:15:18;100436;;;24.17;50.81
70198;BME280;57582;-34.876;138.628;2023-02-11T08:18:18;100451;;;24.03;51.36
70198;BME280;57582;-34.876;138.628;2023-02-11T08:21:18;100454;;;23.88;51.98
70198;BME280;57582;-34.876;138.628;2023-02-11T08:24:18;100465;;;23.83;52.18
70198;BME280;57582;-34.876;138.628;2023-02-11T08:27:18;100471;;;23.63;52.92
70198;BME280;57582;-34.876;138.628;2023-02-11T08:30:18;100471;;;23.57;53.88
70198;BME280;57582;-34.876;138.628;2023-02-11T08:33:19;100462;;;23.40;54.82
70198;BME280;57582;-34.876;138.628;2023-02-11T08:36:19;100466;;;23.39;54.61
70198;BME280;57582;-34.876;138.628;2023-02-11T08:39:19;100483;;;23.30;54.45
70198;BME280;57582;-34.876;138.628;2023-02-11T08:42:18;100494;;;23.17;54.75
70198;BME280;57582;-34.876;138.628;2023-02-11T08:45:19;100502;;;23.15;55.78
70198;BME280;57582;-34.876;138.628;2023-02-11T08:48:18;100505;;;23.04;56.22
70198;BME280;57582;-34.876;138.628;2023-02-11T08:51:19;100496;;;23.02;56.25
70198;BME280;57582;-34.876;138.628;2023-02-11T08:54:18;100502;;;22.90;55.98
70198;BME280;57582;-34.876;138.628;2023-02-11T08:57:18;100512;;;22.93;56.38
70198;BME280;57582;-34.876;138.628;2023-02-11T09:00:18;100528;;;22.96;56.06
70198;BME280;57582;-34.876;138.628;2023-02-11T09:03:18;100532;;;22.99;55.68
70198;BME280;57582;-34.876;138.628;2023-02-11T09:06:18;100525;;;22.83;55.30
70198;BME280;57582;-34.876;138.628;2023-02-11T09:09:18;100524;;;22.49;56.12
70198;BME280;57582;-34.876;138.628;2023-02-11T09:12:18;100534;;;22.36;56.29
70198;BME280;57582;-34.876;138.628;2023-02-11T09:15:18;100537;;;22.32;56.56
70198;BME280;57582;-34.876;138.628;2023-02-11T09:18:18;100553;;;22.20;56.56
70198;BME280;57582;-34.876;138.628;2023-02-11T09:21:19;100549;;;22.09;57.42
70198;BME280;57582;-34.876;138.628;2023-02-11T09:24:18;100553;;;22.14;57.59
70198;BME280;57582;-34.876;138.628;2023-02-11T09:27:18;100559;;;22.10;57.44
70198;BME280;57582;-34.876;138.628;2023-02-11T09:30:19;100553;;;22.12;57.36
70198;BME280;57582;-34.876;138.628;2023-02-11T09:33:18;100556;;;22.08;57.28
70198;BME280;57582;-34.876;138.628;2023-02-11T09:36:20;100566;;;22.13;57.11
70198;BME280;57582;-34.876;138.628;2023-02-11T09:39:18;100566;;;22.20;56.82
70198;BME280;57582;-34.876;138.628;2023-02-11T09:45:23;100583;;;22.03;57.45
70198;BME280;57582;-34.876;138.628;2023-02-11T09:48:19;100582;;;21.90;57.94
70198;BME280;57582;-34.876;138.628;2023-02-11T09:51:19;100584;;;21.99;57.83
70198;BME280;57582;-34.876;138.628;2023-02-11T09:54:23;100582;;;21.91;58.53
70198;BME280;57582;-34.876;138.628;2023-02-11T09:57:18;100584;;;21.84;59.01
70198;BME280;57582;-34.876;138.628;2023-02-11T10:15:20;100609;;;21.71;60.66
70198;BME280;57582;-34.876;138.628;2023-02-11T10:18:32;100607;;;21.82;60.57
70198;BME280;57582;-34.876;138.628;2023-02-11T10:24:18;100616;;;21.93;60.08
70198;BME280;57582;-34.876;138.628;2023-02-11T10:27:19;100611;;;22.04;59.73
70198;BME280;57582;-34.876;138.628;2023-02-11T10:30:21;100618;;;22.06;59.63
70198;BME280;57582;-34.876;138.628;2023-02-11T10:33:22;100617;;;22.17;59.26
70198;BME280;57582;-34.876;138.628;2023-02-11T10:36:18;100616;;;22.25;58.83
70198;BME280;57582;-34.876;138.628;2023-02-11T10:39:20;100621;;;22.20;58.86
70198;BME280;57582;-34.876;138.628;2023-02-11T10:42:18;100627;;;22.14;59.05
70198;BME280;57582;-34.876;138.628;2023-02-11T10:45:24;100632;;;22.17;58.57
70198;BME280;57582;-34.876;138.628;2023-02-11T10:51:34;100645;;;22.15;58.88
70198;BME280;57582;-34.876;138.628;2023-02-11T10:54:18;100644;;;22.14;59.04
70198;BME280;57582;-34.876;138.628;2023-02-11T10:57:18;100646;;;22.12;59.05
70198;BME280;57582;-34.876;138.628;2023-02-11T11:00:30;100647;;;22.14;59.05
70198;BME280;57582;-34.876;138.628;2023-02-11T11:03:19;100643;;;22.12;58.97
70198;BME280;57582;-34.876;138.628;2023-02-11T11:06:29;100647;;;22.04;58.98
70198;BME280;57582;-34.876;138.628;2023-02-11T11:09:27;100653;;;21.93;57.79
70198;BME280;57582;-34.876;138.628;2023-02-11T11:12:35;100655;;;21.91;56.71
70198;BME280;57582;-34.876;138.628;2023-02-11T11:15:20;100657;;;21.93;55.85
70198;BME280;57582;-34.876;138.628;2023-02-11T11:18:19;100662;;;21.93;54.19
70198;BME280;57582;-34.876;138.628;2023-02-11T11:21:29;100661;;;21.99;52.90
70198;BME280;57582;-34.876;138.628;2023-02-11T11:27:20;100668;;;22.08;51.97
70198;BME280;57582;-34.876;138.628;2023-02-11T11:30:18;100666;;;22.00;51.89
70198;BME280;57582;-34.876;138.628;2023-02-11T11:33:20;100662;;;22.04;51.16
70198;BME280;57582;-34.876;138.628;2023-02-11T11:36:19;100674;;;22.08;51.08
70198;BME280;57582;-34.876;138.628;2023-02-11T11:39:21;100679;;;22.10;50.72
70198;BME280;57582;-34.876;138.628;2023-02-11T11:42:36;100681;;;22.06;50.74
70198;BME280;57582;-34.876;138.628;2023-02-11T11:45:23;100678;;;22.14;50.62
70198;BME280;57582;-34.876;138.628;2023-02-11T11:48:20;100688;;;22.20;50.40
70198;BME280;57582;-34.876;138.628;2023-02-11T11:51:18;100689;;;22.24;50.10
70198;BME280;57582;-34.876;138.628;2023-02-11T11:54:18;100694;;;22.13;50.46
70198;BME280;57582;-34.876;138.628;2023-02-11T11:57:20;100683;;;22.13;50.48
70198;BME280;57582;-34.876;138.628;2023-02-11T12:00:28;100690;;;22.07;50.64
70198;BME280;57582;-34.876;138.628;2023-02-11T12:09:23;100694;;;22.10;50.37
70198;BME280;57582;-34.876;138.628;2023-02-11T12:12:28;100694;;;22.04;50.55
70198;BME280;57582;-34.876;138.628;2023-02-11T12:24:28;100692;;;21.91;50.92
70198;BME280;57582;-34.876;138.628;2023-02-11T12:30:21;100688;;;21.97;51.00
70198;BME280;57582;-34.876;138.628;2023-02-11T12:33:24;100693;;;22.00;51.03
70198;BME280;57582;-34.876;138.628;2023-02-11T12:36:26;100685;;;22.00;50.96
70198;BME280;57582;-34.876;138.628;2023-02-11T12:45:28;100678;;;22.01;51.13
70198;BME280;57582;-34.876;138.628;2023-02-11T12:49:21;100677;;;22.00;51.09
70198;BME280;57582;-34.876;138.628;2023-02-11T12:54:23;100686;;;21.96;51.39
70198;BME280;57582;-34.876;138.628;2023-02-11T12:57:21;100683;;;21.98;51.41
70198;BME280;57582;-34.876;138.628;2023-02-11T13:03:21;100678;;;22.07;51.36
70198;BME280;57582;-34.876;138.628;2023-02-11T13:06:21;100682;;;22.15;51.02
70198;BME280;57582;-34.876;138.628;2023-02-11T13:09:19;100683;;;22.21;50.65
70198;BME280;57582;-34.876;138.628;2023-02-11T13:12:18;100681;;;22.18;50.66
70198;BME280;57582;-34.876;138.628;2023-02-11T13:15:18;100680;;;22.19;50.18
70198;BME280;57582;-34.876;138.628;2023-02-11T13:18:26;100684;;;22.12;50.25
70198;BME280;57582;-34.876;138.628;2023-02-11T13:24:21;100690;;;22.17;50.08
70198;BME280;57582;-34.876;138.628;2023-02-11T13:30:34;100688;;;21.97;50.33
70198;BME280;57582;-34.876;138.628;2023-02-11T13:33:20;100677;;;21.94;50.55
70198;BME280;57582;-34.876;138.628;2023-02-11T13:36:20;100687;;;21.93;50.55
70198;BME280;57582;-34.876;138.628;2023-02-11T13:39:19;100682;;;21.94;50.50
70198;BME280;57582;-34.876;138.628;2023-02-11T13:42:18;100681;;;21.93;50.48
70198;BME280;57582;-34.876;138.628;2023-02-11T13:48:19;100689;;;21.88;50.90
70198;BME280;57582;-34.876;138.628;2023-02-11T13:51:33;100678;;;21.88;50.92
70198;BME280;57582;-34.876;138.628;2023-02-11T13:54:21;100674;;;21.92;51.11
70198;BME280;57582;-34.876;138.628;2023-02-11T14:06:21;100667;;;21.94;51.42
70198;BME280;57582;-34.876;138.628;2023-02-11T14:09:36;100666;;;21.97;51.33
70198;BME280;57582;-34.876;138.628;2023-02-11T14:12:23;100659;;;21.99;51.46
70198;BME280;57582;-34.876;138.628;2023-02-11T14:15:19;100661;;;22.04;51.38
70198;BME280;57582;-34.876;138.628;2023-02-11T14:19:09;100662;;;22.12;51.21
70198;BME280;57582;-34.876;138.628;2023-02-11T14:21:21;100669;;;22.16;51.17
70198;BME280;57582;-34.876;138.628;2023-02-11T14:36:22;100670;;;22.13;51.76
70198;BME280;57582;-34.876;138.628;2023-02-11T14:42:19;100663;;;21.95;52.68
70198;BME280;57582;-34.876;138.628;2023-02-11T14:45:20;100655;;;21.94;52.99
70198;BME280;57582;-34.876;138.628;2023-02-11T14:48:19;100664;;;21.93;53.16
70198;BME280;57582;-34.876;138.628;2023-02-11T14:51:19;100658;;;21.77;53.65
70198;BME280;57582;-34.876;138.628;2023-02-11T14:54:21;100656;;;21.83;53.66
70198;BME280;57582;-34.876;138.628;2023-02-11T14:57:19;100657;;;21.88;53.47
70198;BME280;57582;-34.876;138.628;2023-02-11T15:00:20;100661;;;21.94;53.37
70198;BME280;57582;-34.876;138.628;2023-02-11T15:06:20;100651;;;22.06;52.96
70198;BME280;57582;-34.876;138.628;2023-02-11T15:09:20;100645;;;22.11;52.87
70198;BME280;57582;-34.876;138.628;2023-02-11T15:12:21;100640;;;22.18;52.64
70198;BME280;57582;-34.876;138.628;2023-02-11T15:15:18;100641;;;22.25;52.62
70198;BME280;57582;-34.876;138.628;2023-02-11T15:18:20;100626;;;22.26;52.38
70198;BME280;57582;-34.876;138.628;2023-02-11T15:21:21;100635;;;22.30;52.32
70198;BME280;57582;-34.876;138.628;2023-02-11T15:24:23;100636;;;22.32;52.15
70198;BME280;57582;-34.876;138.628;2023-02-11T15:27:18;100628;;;22.37;52.16
70198;BME280;57582;-34.876;138.628;2023-02-11T15:33:20;100623;;;22.34;52.02
70198;BME280;57582;-34.876;138.628;2023-02-11T15:36:20;100618;;;22.34;52.12
70198;BME280;57582;-34.876;138.628;2023-02-11T15:45:22;100617;;;22.37;52.50
70198;BME280;57582;-34.876;138.628;2023-02-11T15:48:20;100609;;;22.39;52.43
70198;BME280;57582;-34.876;138.628;2023-02-11T15:54:20;100597;;;22.45;53.10
70198;BME280;57582;-34.876;138.628;2023-02-11T15:57:19;100607;;;22.53;53.71
70198;BME280;57582;-34.876;138.628;2023-02-11T16:00:19;100601;;;22.59;53.89
70198;BME280;57582;-34.876;138.628;2023-02-11T16:03:19;100603;;;22.33;55.96
70198;BME280;57582;-34.876;138.628;2023-02-11T16:09:35;100591;;;22.30;56.62
70198;BME280;57582;-34.876;138.628;2023-02-11T16:12:22;100590;;;22.21;56.34
70198;BME280;57582;-34.876;138.628;2023-02-11T16:18:22;100594;;;22.02;56.38
70198;BME280;57582;-34.876;138.628;2023-02-11T16:21:19;100587;;;21.99;56.25
70198;BME280;57582;-34.876;138.628;2023-02-11T16:24:21;100582;;;21.89;55.91
70198;BME280;57582;-34.876;138.628;2023-02-11T16:27:25;100583;;;21.83;55.62
70198;BME280;57582;-34.876;138.628;2023-02-11T16:33:19;100578;;;21.54;56.83
70198;BME280;57582;-34.876;138.628;2023-02-11T16:36:18;100575;;;21.48;57.32
70198;BME280;57582;-34.876;138.628;2023-02-11T16:39:19;100580;;;21.58;57.08
70198;BME280;57582;-34.876;138.628;2023-02-11T16:42:19;100577;;;21.65;56.96
70198;BME280;57582;-34.876;138.628;2023-02-11T16:45:19;100582;;;21.69;57.21
70198;BME280;57582;-34.876;138.628;2023-02-11T16:48:18;100579;;;21.71;57.24
70198;BME280;57582;-34.876;138.628;2023-02-11T16:51:19;100582;;;21.78;57.15
70198;BME280;57582;-34.876;138.628;2023-02-11T16:54:19;100584;;;21.71;57.47
70198;BME280;57582;-34.876;138.628;2023-02-11T16:57:21;100569;;;21.83;57.09
70198;BME280;57582;-34.876;138.628;2023-02-11T17:00:19;100589;;;21.59;57.57
70198;BME280;57582;-34.876;138.628;2023-02-11T17:03:20;100581;;;21.32;58.33
70198;BME280;57582;-34.876;138.628;2023-02-11T17:06:19;100582;;;21.20;58.52
70198;BME280;57582;-34.876;138.628;2023-02-11T17:09:20;100580;;;21.27;58.35
70198;BME280;57582;-34.876;138.628;2023-02-11T17:12:19;100585;;;21.22;58.32
70198;BME280;57582;-34.876;138.628;2023-02-11T17:15:19;100585;;;21.18;58.36
70198;BME280;57582;-34.876;138.628;2023-02-11T17:18:19;100580;;;21.09;58.68
70198;BME280;57582;-34.876;138.628;2023-02-11T17:21:19;100578;;;20.98;59.16
70198;BME280;57582;-34.876;138.628;2023-02-11T17:24:19;100584;;;21.03;59.06
70198;BME280;57582;-34.876;138.628;2023-02-11T17:27:19;100585;;;21.08;58.93
70198;BME280;57582;-34.876;138.628;2023-02-11T17:30:19;100581;;;21.07;59.00
70198;BME280;57582;-34.876;138.628;2023-02-11T17:33:19;100580;;;21.15;58.54
70198;BME280;57582;-34.876;138.628;2023-02-11T17:36:19;100589;;;21.22;58.45
70198;BME280;57582;-34.876;138.628;2023-02-11T17:39:19;100598;;;21.19;58.41
70198;BME280;57582;-34.876;138.628;2023-02-11T17:42:19;100593;;;21.16;58.39
70198;BME280;57582;-34.876;138.628;2023-02-11T17:45:19;100596;;;21.23;58.25
70198;BME280;57582;-34.876;138.628;2023-02-11T17:48:19;100600;;;21.19;57.95
70198;BME280;57582;-34.876;138.628;2023-02-11T17:51:23;100611;;;21.11;57.39
70198;BME280;57582;-34.876;138.628;2023-02-11T17:54:19;100615;;;20.92;56.25
70198;BME280;57582;-34.876;138.628;2023-02-11T17:57:19;100609;;;20.89;55.28
70198;BME280;57582;-34.876;138.628;2023-02-11T18:00:19;100626;;;20.60;55.21
70198;BME280;57582;-34.876;138.628;2023-02-11T18:03:19;100633;;;20.61;54.89
70198;BME280;57582;-34.876;138.628;2023-02-11T18:06:19;100630;;;20.64;54.41
70198;BME280;57582;-34.876;138.628;2023-02-11T18:09:19;100635;;;20.59;54.23
70198;BME280;57582;-34.876;138.628;2023-02-11T18:12:19;100635;;;20.59;54.09
70198;BME280;57582;-34.876;138.628;2023-02-11T18:15:19;100635;;;20.66;53.87